Ride Results

Kundabung Endurance Ride (29-06-2014)
Ride distance: 80.0 km

Outcomes - Kundabung Endurance Ride (29-06-2014)
Division No. of Entries Retired / DNE Completed Withdrawn Ineligible V/O Percentage Completed
HW 13 - 13 - - - 100.00%
MW 23 - 19 - - 4 82.61%
LW 11 - 10 - - 1 90.91%
JN 4 - 3 - - 1 75.00%
Totals 51 - 45 - - 6 88.24%
Results - Kundabung Endurance Ride (29-06-2014)
No. Rider Horse Place Time Leg Speeds Total
Km/Hr
H/R bpm
Heavyweight
15 Thomas Hermann TTH Headliner 1 (BC) 4:59:00 16.3, 15.7 16.05 38, 40, 44 (Avg:42)
6 Steve Broadbent Glendhu Moonshine 2 5:51:00 14.9, 12.5 13.68 35, 43, 44 (Avg:43)
36 Rod Mitchell Aloha Tribal Warrior 3 6:06:00 13.0, 13.1 13.11 34, 42, 58 (Avg:50)
45 Allan Caslick A'Landell Sampson 4 6:35:00 12.6, 11.6 12.15 40, 42, 44 (Avg:43)
11 Len Derkacz Salam Zahbeel 5 6:55:00 12.6, 10.6 11.57 38, 45, 48 (Avg:46)
28 Tami Parnell Churinga Flyer 6 7:04:00 12.0, 10.6 11.32 37, 41, 49 (Avg:45)
14 Tangil Kinch Kim-Dande Shatahli 7 7:22:00 11.7, 10.1 10.86 36, 37, 40 (Avg:38)
18 Keith Sumpner Fonda 7 7:22:00 11.6, 10.1 10.86 30, 49, 59 (Avg:54)
13 Charles Gauci Charlieville Jack 9 7:41:00 11.0, 9.8 10.41 32, 40, 55 (Avg:47)
12 Greg Moore Parkview Armageddon 10 7:42:00 11.0, 9.8 10.39 42, 42, 52 (Avg:47)
21 Christopher Schofield Bradali Ice N Rain 11 8:38:00 9.8, 8.7 9.27 40, 40, 60 (Avg:50)
43 Gavin Peacock Eclipse 12 22:00:00 2.0, 17.5 3.64 36, 39, 45 (Avg:42)
17 Scott Peters Castlebar Icon 12 22:00:00 2.0, 16.7 3.64 34, 41, 51 (Avg:46)
Middleweight
33 Nicole Smith Skittles 1 (BC) 5:11:00 15.2, 15.5 15.43 40, 45, 50 (Avg:47)
22 Sharon Foster Sharabel Maleka 2 5:48:00 15.2, 12.5 13.79 38, 48, 51 (Avg:49)
49 Corey Nix Razorback Blue Rhapsody 3 5:52:00 12.2, 15.3 13.64 40, 43, 46 (Avg:44)
20 Ashley Thomas Ben Mariah 4 6:11:00 14.1, 11.9 12.94 32, 40, 56 (Avg:48)
2 Maureen Feltham Malali 5 6:17:00 12.9, 12.5 12.73 39, 40, 45 (Avg:42)
16 Malcolm Fletcher Torryburn Rahal 6 6:55:00 12.6, 10.6 11.57 38, 51, 57 (Avg:54)
31 Ruth Van der Wegen Aloha Aktar 7 7:00:00 10.8, 12.1 11.43 40, 34, 39 (Avg:36)
7 Susan Pritchard Khalidah Tasneem 8 7:02:00 11.2, 11.5 11.37 33, 38, 50 (Avg:44)
29 Tracey Hutchinson Cherox Kenya 9 7:04:00 12.0, 10.6 11.32 33, 37, 45 (Avg:41)
38 Melanie Anderson Ausden Kon Tiki 10 7:06:00 11.5, 11.0 11.27 32, 39, 51 (Avg:45)
42 Brad Dillon Banfield Reign 10 7:06:00 11.2, 11.3 11.27 45, 49, 51 (Avg:50)
35 Alex Baczocha Ralvon Secret 12 7:08:00 11.4, 10.9 11.21 38, 41, 42 (Avg:41)
51 Derryn Nix Homeleigh Mountain Khalid's Komet 13 7:17:00 10.6, 11.3 10.98 49, 42, 48 (Avg:45)
40 Ariel Riek Sakhi Shushani Emma 14 7:23:00 12.1, 9.7 10.84 42, 42, 55 (Avg:48)
47 Annette Gifford Porcelyn Bey 15 7:26:00 10.9, 10.5 10.76 37, 46, 54 (Avg:50)
27 Amanda Overall Leechdale Silver Shimmah 16 7:28:00 10.9, 10.4 10.71 34, 43, 53 (Avg:48)
5 Emma Coleman Rainbows Reach Dark N Stormy 17 7:35:00 10.5, 10.5 10.55 33, 46, 40 (Avg:43)
30 Carol Major Bradali Najmul Fi Samar 18 7:43:00 9.9, 10.8 10.37 35, 36, 46 (Avg:41)
46 Sonya Ruprecht Alexville Mariah 18 7:43:00 9.9, 10.8 10.37 49, 40, 47 (Avg:43)
26 Fiona Coddington Wanstead Silver Flyer Lame L2 0:00:00 10.6, 11.3 - 40, 50, 59 (Avg:54)
41 Helen Riek Sakhi Sasha Azizza Lame L2 0:00:00 12.1, 9.7 - 42, 45, 48 (Avg:46)
44 Jackie Tattam Nyora Dust of Gold Lame L2 0:00:00 12.9, 13.1 - 35, 43, 48 (Avg:45)
3 Margaret Boland Rosebrae Amber Heart Rate L1 0:00:00 11.5 - 36, 65 (Avg:65)
Lightweight
37 Elaine Kirby Excessabelle 1 (BC) 5:49:00 12.9, 14.7 13.75 27, 35, 42 (Avg:38)
34 Antonia Somerville Allyndah Dezynah Vogue 2 5:57:00 13.4, 13.4 13.45 43, 44, 53 (Avg:48)
8 Cathy Ferguson Neswuet Silver Flame 3 6:11:00 12.9, 12.9 12.94 38, 44, 53 (Avg:48)
10 Anne Hills Evening Star 4 6:58:00 12.6, 10.4 11.48 34, 40, 35 (Avg:37)
50 Carly Nix Castlebar Cartier 5 7:17:00 10.6, 11.3 10.98 49, 33, 40 (Avg:36)
19 Jan Wade Hillville Amigo 6 7:22:00 11.6, 10.1 10.86 44, 37, 52 (Avg:44)
39 Carol Layton New-Moon Flashlight 7 7:28:00 10.9, 10.4 10.71 38, 43, 47 (Avg:45)
1 Alison Clark Pumba 8 7:30:00 12.5, 9.2 10.67 36, 42, 43 (Avg:42)
4 Ros Ryan Cloudburst 9 7:35:00 10.5, 10.5 10.55 36, 42, 47 (Avg:44)
32 Sarah Ross New Kingston 10 8:07:00 9.9, 9.7 9.86 38, 40, 44 (Avg:42)
9 Kim Ruehe Picnic Park Thunder Struck Lame L1 0:00:00 12.0 - 50, 48 (Avg:48)
Junior
24 Isabel Foster Sharabel Kalarney 1 (BC) 5:48:00 15.2, 12.5 13.79 37, 40, 43 (Avg:41)
25 Cybele Coddington Star Cross Imperial 2 7:18:00 10.6, 11.3 10.96 34, 39, 51 (Avg:45)
23 Modena Schofield-Foster Sharabel Akaysha 3 8:38:00 9.8, 8.7 9.27 31, 33, 43 (Avg:38)
48 Adele Gifford Serenity Bey Lame L2 0:00:00 10.9, 10.5 - 36, 45, 59 (Avg:52)